Terminal Aerodrome Forecast
Issued by NWS

Home | Current Version | Previous Version | Text Only | Print | Product List | Glossary Off
Versions: 1 2 3 4 5 6 7 8 9 10 11 12

000
FTUS45 KRIW 232300
TAFBPI
TAF
KBPI 232329Z 2400/2424 24012G22KT P6SM VCSH SCT120 BKN150
     FM240300 20007KT P6SM SCT130
     FM241700 24011KT P6SM SCT130
     FM241900 27020G30KT P6SM FEW130=

USA.gov is the U.S. government's official web portal to all federal, state and local government web resources and services.